createdAt,value
2018-12-02T00:01:06.526Z,99745.00
2018-12-02T00:03:36.117Z,99746.00
2018-12-02T00:06:05.867Z,99741.00
2018-12-02T00:08:35.901Z,99737.00
2018-12-02T00:11:08.589Z,99741.00
2018-12-02T00:13:39.769Z,99734.00
2018-12-02T00:16:09.377Z,99730.00
2018-12-02T00:18:42.595Z,99733.00
2018-12-02T00:21:14.420Z,99727.00
2018-12-02T00:23:45.000Z,99719.00
2018-12-02T00:26:15.202Z,99722.00
2018-12-02T00:28:45.081Z,99720.00
2018-12-02T00:31:17.286Z,99709.00
2018-12-02T00:33:49.008Z,99701.00
2018-12-02T00:36:21.425Z,99707.00
2018-12-02T00:38:52.125Z,99704.00
2018-12-02T00:41:21.761Z,99704.00
2018-12-02T00:43:54.623Z,99701.00
2018-12-02T00:46:26.986Z,99694.00
2018-12-02T00:48:57.369Z,99686.00
2018-12-02T00:51:32.804Z,99685.00
2018-12-02T00:54:05.637Z,99679.00
2018-12-02T00:56:41.770Z,99675.00
2018-12-02T00:59:11.189Z,99674.00
2018-12-02T01:01:40.854Z,99674.00
2018-12-02T01:04:13.293Z,99664.00
2018-12-02T01:06:43.174Z,99665.00
2018-12-02T01:09:12.781Z,99666.00
2018-12-02T01:11:44.295Z,99666.00
2018-12-02T01:14:17.937Z,99662.00
2018-12-02T01:16:52.363Z,99658.00
2018-12-02T01:19:22.680Z,99650.00
2018-12-02T01:21:52.423Z,99650.00
2018-12-02T01:24:23.160Z,99641.00
2018-12-02T01:26:52.861Z,99643.00
2018-12-02T01:29:22.489Z,99636.00
2018-12-02T01:31:52.714Z,99630.00
2018-12-02T01:34:22.391Z,99627.00
2018-12-02T01:36:51.986Z,99631.00
2018-12-02T01:39:22.518Z,99626.00
2018-12-02T01:41:53.734Z,99627.00
2018-12-02T01:44:23.478Z,99616.00
2018-12-02T01:46:53.395Z,99623.00
2018-12-02T01:49:23.982Z,99616.00
2018-12-02T01:51:53.890Z,99603.00
2018-12-02T01:54:23.520Z,99608.00
2018-12-02T01:56:53.276Z,99606.00
2018-12-02T01:59:23.194Z,99600.00
2018-12-02T02:01:52.843Z,99597.00
2018-12-02T02:04:22.559Z,99589.00
2018-12-02T02:06:52.117Z,99584.00
2018-12-02T02:09:21.726Z,99578.00
2018-12-02T02:11:51.924Z,99582.00
2018-12-02T02:14:23.576Z,99574.00
2018-12-02T02:16:53.314Z,99568.00
2018-12-02T02:19:22.813Z,99562.00
2018-12-02T02:21:52.919Z,99562.00
2018-12-02T02:24:23.548Z,99559.00
2018-12-02T02:26:53.282Z,99556.00
2018-12-02T02:29:23.311Z,99553.00
2018-12-02T02:31:53.716Z,99549.00
2018-12-02T02:34:23.279Z,99545.00
2018-12-02T02:36:52.957Z,99539.00
2018-12-02T02:39:24.568Z,99545.00
2018-12-02T02:41:54.029Z,99533.00
2018-12-02T02:44:25.330Z,99530.00
2018-12-02T02:46:55.728Z,99527.00
2018-12-02T02:49:26.644Z,99526.00
2018-12-02T02:51:57.495Z,99526.00
2018-12-02T02:54:27.024Z,99521.00
2018-12-02T02:56:56.505Z,99519.00
2018-12-02T02:59:25.884Z,99518.00
2018-12-02T03:01:55.398Z,99514.00
2018-12-02T03:04:24.940Z,99514.00
2018-12-02T03:06:54.391Z,99509.00
2018-12-02T03:09:23.832Z,99511.00
2018-12-02T03:11:53.578Z,99505.00
2018-12-02T03:14:23.228Z,99495.00
2018-12-02T03:16:52.891Z,99499.00
2018-12-02T03:19:22.531Z,99493.00
2018-12-02T03:21:52.213Z,99489.00
2018-12-02T03:24:21.788Z,99484.00
2018-12-02T03:26:51.207Z,99484.00
2018-12-02T03:29:20.810Z,99481.00
2018-12-02T03:31:50.460Z,99486.00
2018-12-02T03:34:19.954Z,99484.00
2018-12-02T03:36:50.828Z,99474.00
2018-12-02T03:39:20.851Z,99476.00
2018-12-02T03:41:50.241Z,99469.00
2018-12-02T03:44:20.880Z,99462.00
2018-12-02T03:46:50.299Z,99457.00
2018-12-02T03:49:19.788Z,99457.00
2018-12-02T03:51:49.318Z,99449.00
2018-12-02T03:54:18.917Z,99437.00
2018-12-02T03:56:48.738Z,99432.00
2018-12-02T03:59:18.290Z,99425.00
2018-12-02T04:01:47.702Z,99425.00
2018-12-02T04:04:17.174Z,99421.00
2018-12-02T04:06:48.012Z,99414.00
2018-12-02T04:09:17.446Z,99397.00
2018-12-02T04:11:46.929Z,99389.00
2018-12-02T04:14:16.397Z,99383.00
2018-12-02T04:16:45.790Z,99386.00
2018-12-02T04:19:15.453Z,99390.00
2018-12-02T04:21:45.291Z,99391.00
2018-12-02T04:24:14.812Z,99373.00
2018-12-02T04:26:44.276Z,99370.00
2018-12-02T04:29:14.011Z,99368.00
2018-12-02T04:31:43.371Z,99361.00
2018-12-02T04:34:12.791Z,99354.00
2018-12-02T04:36:42.346Z,99342.00
2018-12-02T04:39:11.855Z,99333.00
2018-12-02T04:41:41.412Z,99336.00
2018-12-02T04:44:10.936Z,99332.00
2018-12-02T04:46:40.451Z,99328.00
2018-12-02T04:49:09.954Z,99322.00
2018-12-02T04:51:39.406Z,99307.00
2018-12-02T04:54:08.750Z,99302.00
2018-12-02T04:56:38.173Z,99305.00
2018-12-02T04:59:08.042Z,99305.00
2018-12-02T05:01:39.556Z,99297.00
2018-12-02T05:04:08.990Z,99295.00
2018-12-02T05:06:38.732Z,99289.00
2018-12-02T05:09:08.745Z,99286.00
2018-12-02T05:11:38.205Z,99279.00
2018-12-02T05:14:07.708Z,99271.00
2018-12-02T05:16:37.916Z,99267.00
2018-12-02T05:19:07.419Z,99264.00
2018-12-02T05:21:37.370Z,99265.00
2018-12-02T05:24:07.002Z,99257.00
2018-12-02T05:26:36.570Z,99263.00
2018-12-02T05:29:06.068Z,99264.00
2018-12-02T05:31:35.661Z,99260.00
2018-12-02T05:34:05.427Z,99267.00
2018-12-02T05:36:35.124Z,99261.00
2018-12-02T05:39:06.746Z,99267.00
2018-12-02T05:41:48.178Z,99263.00
2018-12-02T05:44:17.842Z,99257.00
2018-12-02T05:46:48.319Z,99268.00
2018-12-02T05:49:18.217Z,99266.00
2018-12-02T05:51:49.750Z,99261.00
2018-12-02T05:54:19.186Z,99258.00
2018-12-02T05:56:48.753Z,99258.00
2018-12-02T05:59:18.362Z,99265.00
2018-12-02T06:01:52.531Z,99255.00
2018-12-02T06:04:22.275Z,99255.00
2018-12-02T06:06:51.741Z,99248.00
2018-12-02T06:09:27.288Z,99253.00
2018-12-02T06:11:58.443Z,99244.00
2018-12-02T06:14:30.268Z,99246.00
2018-12-02T06:17:02.399Z,99247.00
2018-12-02T06:19:32.384Z,99256.00
2018-12-02T06:22:03.111Z,99249.00
2018-12-02T06:24:32.719Z,99249.00
2018-12-02T06:27:02.169Z,99239.00
2018-12-02T06:29:31.561Z,99239.00
2018-12-02T06:32:04.981Z,99233.00
2018-12-02T06:34:34.400Z,99230.00
2018-12-02T06:37:04.004Z,99223.00
2018-12-02T06:39:33.493Z,99213.00
2018-12-02T06:42:03.013Z,99214.00
2018-12-02T06:44:33.884Z,99218.00
2018-12-02T06:47:03.547Z,99206.00
2018-12-02T06:49:33.120Z,99196.00
2018-12-02T06:52:02.588Z,99178.00
2018-12-02T06:54:45.901Z,99178.00
2018-12-02T06:57:22.152Z,99185.00
2018-12-02T07:00:12.144Z,99187.00
2018-12-02T07:03:02.889Z,99199.00
2018-12-02T07:05:39.650Z,99189.00
2018-12-02T07:08:09.328Z,99195.00
2018-12-02T07:10:38.834Z,99192.00
2018-12-02T07:13:08.314Z,99177.00
2018-12-02T07:15:37.727Z,99168.00
2018-12-02T07:18:13.209Z,99163.00
2018-12-02T07:20:50.918Z,99156.00
2018-12-02T07:23:24.592Z,99165.00
2018-12-02T07:26:06.747Z,99159.00
2018-12-02T07:28:36.287Z,99169.00
2018-12-02T07:31:06.216Z,99157.00
2018-12-02T07:33:35.694Z,99156.00
2018-12-02T07:36:05.963Z,99158.00
2018-12-02T07:38:43.625Z,99140.00
2018-12-02T07:41:13.187Z,99142.00
2018-12-02T07:43:42.973Z,99161.00
2018-12-02T07:46:13.037Z,99148.00
2018-12-02T07:48:42.591Z,99151.00
2018-12-02T07:51:11.963Z,99152.00
2018-12-02T07:53:41.571Z,99143.00
2018-12-02T07:56:13.212Z,99139.00
2018-12-02T07:58:42.622Z,99131.00
2018-12-02T08:01:13.433Z,99127.00
2018-12-02T08:03:43.059Z,99123.00
2018-12-02T08:06:12.987Z,99118.00
2018-12-02T08:08:42.631Z,99112.00
2018-12-02T08:11:12.063Z,99107.00
2018-12-02T08:13:41.359Z,99102.00
2018-12-02T08:16:10.719Z,99108.00
2018-12-02T08:18:40.130Z,99105.00
2018-12-02T08:21:09.593Z,99105.00
2018-12-02T08:23:40.415Z,99112.00
2018-12-02T08:26:09.786Z,99098.00
2018-12-02T08:28:39.157Z,99097.00
2018-12-02T08:31:09.835Z,99102.00
2018-12-02T08:33:39.152Z,99094.00
2018-12-02T08:36:08.600Z,99089.00
2018-12-02T08:38:38.155Z,99088.00
2018-12-02T08:41:07.611Z,99084.00
2018-12-02T08:43:36.984Z,99080.00
2018-12-02T08:46:06.651Z,99081.00
2018-12-02T08:48:36.143Z,99076.00
2018-12-02T08:51:06.766Z,99074.00
2018-12-02T08:53:36.744Z,99060.00
2018-12-02T08:56:06.414Z,99056.00
2018-12-02T08:58:35.884Z,99059.00
2018-12-02T09:01:10.388Z,99054.00
2018-12-02T09:03:39.887Z,99054.00
2018-12-02T09:06:09.793Z,99055.00
2018-12-02T09:08:40.000Z,99055.00
2018-12-02T09:11:09.734Z,99053.00
2018-12-02T09:13:39.170Z,99053.00
2018-12-02T09:16:08.698Z,99049.00
2018-12-02T09:18:38.279Z,99050.00
2018-12-02T09:21:09.100Z,99045.00
2018-12-02T09:23:38.660Z,99040.00
2018-12-02T09:26:08.194Z,99039.00
2018-12-02T09:28:38.755Z,99033.00
2018-12-02T09:31:08.447Z,99030.00
2018-12-02T09:33:38.025Z,99024.00
2018-12-02T09:36:07.628Z,99019.00
2018-12-02T09:38:37.183Z,99023.00
2018-12-02T09:41:07.326Z,99018.00
2018-12-02T09:43:36.716Z,99023.00
2018-12-02T09:46:06.289Z,99018.00
2018-12-02T09:48:35.705Z,99017.00
2018-12-02T09:51:05.154Z,99019.00
2018-12-02T09:53:34.597Z,99009.00
2018-12-02T09:56:04.092Z,99003.00
2018-12-02T09:58:34.691Z,98995.00
2018-12-02T10:01:04.232Z,98993.00
2018-12-02T10:03:33.701Z,98995.00
2018-12-02T10:06:03.079Z,98985.00
2018-12-02T10:08:35.766Z,98988.00
2018-12-02T10:11:05.524Z,98984.00
2018-12-02T10:13:35.025Z,98973.00
2018-12-02T10:16:04.471Z,98972.00
2018-12-02T10:18:34.011Z,98964.00
2018-12-02T10:21:03.545Z,98969.00
2018-12-02T10:23:32.925Z,98968.00
2018-12-02T10:26:47.991Z,98960.00
2018-12-02T10:29:17.602Z,98951.00
2018-12-02T10:31:47.294Z,98946.00
2018-12-02T10:34:16.767Z,98943.00
2018-12-02T10:36:46.089Z,98937.00
2018-12-02T10:39:15.551Z,98938.00
2018-12-02T10:41:45.062Z,98940.00
2018-12-02T10:44:14.841Z,98933.00
2018-12-02T10:46:44.320Z,98927.00
2018-12-02T10:49:13.987Z,98927.00
2018-12-02T10:51:43.641Z,98926.00
2018-12-02T10:54:13.842Z,98919.00
2018-12-02T10:56:43.436Z,98918.00
2018-12-02T10:59:23.494Z,98917.00
2018-12-02T11:01:58.033Z,98915.00
2018-12-02T11:04:31.318Z,98905.00
2018-12-02T11:07:03.102Z,98904.00
2018-12-02T11:09:32.488Z,98898.00
2018-12-02T11:12:03.308Z,98896.00
2018-12-02T11:14:33.144Z,98897.00
2018-12-02T11:17:04.028Z,98900.00
2018-12-02T11:19:33.495Z,98886.00
2018-12-02T11:22:04.579Z,98890.00
2018-12-02T11:24:34.346Z,98890.00
2018-12-02T11:27:04.257Z,98889.00
2018-12-02T11:29:34.112Z,98888.00
2018-12-02T11:32:05.919Z,98887.00
2018-12-02T11:34:47.528Z,98874.00
2018-12-02T11:37:17.308Z,98872.00
2018-12-02T11:39:55.991Z,98873.00
2018-12-02T11:42:25.524Z,98876.00
2018-12-02T11:44:55.071Z,98868.00
2018-12-02T11:47:24.653Z,98872.00
2018-12-02T11:49:54.608Z,98867.00
2018-12-02T11:52:25.360Z,98855.00
2018-12-02T11:55:07.736Z,98860.00
2018-12-02T11:58:14.681Z,98859.00
2018-12-02T12:00:46.802Z,98853.00
2018-12-02T12:03:28.278Z,98859.00
2018-12-02T12:05:58.239Z,98854.00
2018-12-02T12:08:28.446Z,98838.00
2018-12-02T12:10:59.558Z,98834.00
2018-12-02T12:13:29.212Z,98834.00
2018-12-02T12:16:18.837Z,98832.00
2018-12-02T12:18:49.338Z,98819.00
2018-12-02T12:21:22.527Z,98817.00
2018-12-02T12:24:01.519Z,98817.00
2018-12-02T12:26:46.988Z,98814.00
2018-12-02T12:29:16.403Z,98820.00
2018-12-02T12:31:45.809Z,98814.00
2018-12-02T12:34:16.374Z,98816.00
2018-12-02T12:36:46.046Z,98809.00
2018-12-02T12:39:15.643Z,98816.00
2018-12-02T12:41:53.369Z,98809.00
2018-12-02T12:44:23.967Z,98802.00
2018-12-02T12:46:53.576Z,98802.00
2018-12-02T12:49:26.188Z,98797.00
2018-12-02T12:51:56.145Z,98795.00
2018-12-02T12:54:26.522Z,98798.00
2018-12-02T12:56:56.481Z,98790.00
2018-12-02T12:59:32.845Z,98792.00
2018-12-02T13:02:06.752Z,98792.00
2018-12-02T13:04:42.291Z,98782.00
2018-12-02T13:07:16.534Z,98784.00
2018-12-02T13:09:54.189Z,98783.00
2018-12-02T13:12:34.227Z,98782.00
2018-12-02T13:15:14.146Z,98783.00
2018-12-02T13:17:49.775Z,98775.00
2018-12-02T13:20:24.163Z,98771.00
2018-12-02T13:22:58.778Z,98768.00
2018-12-02T13:25:30.976Z,98771.00
2018-12-02T13:28:01.814Z,98762.00
2018-12-02T13:30:31.219Z,98768.00
2018-12-02T13:33:00.851Z,98763.00
2018-12-02T13:35:37.232Z,98764.00
2018-12-02T13:38:20.293Z,98764.00
2018-12-02T13:40:49.957Z,98761.00
2018-12-02T13:43:27.040Z,98758.00
2018-12-02T13:45:56.685Z,98757.00
2018-12-02T13:48:28.920Z,98759.00
2018-12-02T13:50:59.043Z,98762.00
2018-12-02T13:53:39.706Z,98766.00
2018-12-02T13:56:36.138Z,98763.00
2018-12-02T13:59:06.493Z,98764.00
2018-12-02T14:01:49.085Z,98761.00
2018-12-02T14:04:18.596Z,98755.00
2018-12-02T14:06:48.115Z,98755.00
2018-12-02T14:09:17.678Z,98756.00
2018-12-02T14:11:47.081Z,98759.00
2018-12-02T14:14:17.835Z,98770.00
2018-12-02T14:16:55.724Z,98772.00
2018-12-02T14:19:34.396Z,98766.00
2018-12-02T14:22:09.691Z,98763.00
2018-12-02T14:24:41.270Z,98764.00
2018-12-02T14:27:19.643Z,98760.00
2018-12-02T14:29:52.348Z,98766.00
2018-12-02T14:32:26.016Z,98766.00
2018-12-02T14:34:55.804Z,98760.00
2018-12-02T14:37:27.820Z,98766.00
2018-12-02T14:40:01.829Z,98764.00
2018-12-02T14:42:44.646Z,98763.00
2018-12-02T14:45:17.296Z,98761.00
2018-12-02T14:47:48.445Z,98755.00
2018-12-02T14:50:20.263Z,98761.00
2018-12-02T14:52:51.706Z,98755.00
2018-12-02T14:55:22.896Z,98755.00
2018-12-02T14:57:54.542Z,98751.00
2018-12-02T15:00:36.916Z,98760.00
2018-12-02T15:03:07.920Z,98744.00
2018-12-02T15:05:55.459Z,98750.00
2018-12-02T15:09:07.737Z,98752.00
2018-12-02T15:11:50.974Z,98749.00
2018-12-02T15:14:23.212Z,98756.00
2018-12-02T15:16:54.199Z,98754.00
2018-12-02T15:19:24.674Z,98764.00
2018-12-02T15:21:55.350Z,98763.00
2018-12-02T15:24:31.019Z,98766.00
2018-12-02T15:27:05.847Z,98772.00
2018-12-02T15:29:49.927Z,98767.00
2018-12-02T15:32:26.018Z,98768.00
2018-12-02T15:34:58.195Z,98770.00
2018-12-02T15:37:41.880Z,98763.00
2018-12-02T15:40:22.499Z,98766.00
2018-12-02T15:43:04.573Z,98765.00
2018-12-02T15:45:42.364Z,98773.00
2018-12-02T15:48:14.533Z,98776.00
2018-12-02T15:50:50.696Z,98776.00
2018-12-02T15:53:24.828Z,98776.00
2018-12-02T15:55:55.288Z,98780.00
2018-12-02T15:58:27.249Z,98783.00
2018-12-02T16:00:58.506Z,98780.00
2018-12-02T16:03:28.580Z,98771.00
2018-12-02T16:06:02.557Z,98783.00
2018-12-02T16:08:34.109Z,98780.00
2018-12-02T16:11:09.384Z,98781.00
2018-12-02T16:13:41.257Z,98788.00
2018-12-02T16:16:10.958Z,98782.00
2018-12-02T16:18:40.944Z,98786.00
2018-12-02T16:21:12.524Z,98787.00
2018-12-02T16:23:42.119Z,98780.00
2018-12-02T16:26:11.979Z,98781.00
2018-12-02T16:28:43.465Z,98787.00
2018-12-02T16:31:13.759Z,98788.00
2018-12-02T16:33:43.396Z,98790.00
2018-12-02T16:36:13.794Z,98783.00
2018-12-02T16:38:44.901Z,98786.00
2018-12-02T16:41:15.299Z,98782.00
2018-12-02T16:43:46.302Z,98789.00
2018-12-02T16:46:16.112Z,98781.00
2018-12-02T16:48:45.900Z,98793.00
2018-12-02T16:51:16.487Z,98787.00
2018-12-02T16:53:46.169Z,98788.00
2018-12-02T16:56:17.811Z,98786.00
2018-12-02T16:59:04.350Z,98789.00
2018-12-02T17:01:35.780Z,98792.00
2018-12-02T17:04:06.211Z,98794.00
2018-12-02T17:06:36.644Z,98797.00
2018-12-02T17:09:11.891Z,98802.00
2018-12-02T17:11:42.702Z,98809.00
2018-12-02T17:14:14.909Z,98815.00
2018-12-02T17:16:44.775Z,98815.00
2018-12-02T17:19:14.704Z,98818.00
2018-12-02T17:21:47.499Z,98816.00
2018-12-02T17:24:18.309Z,98815.00
2018-12-02T17:26:49.914Z,98824.00
2018-12-02T17:29:23.597Z,98814.00
2018-12-02T17:32:13.506Z,98817.00
2018-12-02T17:34:45.600Z,98825.00
2018-12-02T17:37:18.313Z,98826.00
2018-12-02T17:39:52.320Z,98824.00
2018-12-02T17:42:25.489Z,98826.00
2018-12-02T17:44:54.931Z,98831.00
2018-12-02T17:47:25.837Z,98832.00
2018-12-02T17:49:55.459Z,98833.00
2018-12-02T17:52:25.391Z,98826.00
2018-12-02T17:55:01.005Z,98817.00
2018-12-02T17:57:30.757Z,98822.00
2018-12-02T18:00:01.964Z,98828.00
2018-12-02T18:02:32.177Z,98826.00
2018-12-02T18:05:02.140Z,98834.00
2018-12-02T18:07:33.351Z,98830.00
2018-12-02T18:10:06.509Z,98839.00
2018-12-02T18:12:38.935Z,98833.00
2018-12-02T18:15:17.929Z,98829.00
2018-12-02T18:17:54.993Z,98842.00
2018-12-02T18:20:25.395Z,98837.00
2018-12-02T18:22:56.549Z,98838.00
2018-12-02T18:25:28.287Z,98843.00
2018-12-02T18:27:58.400Z,98848.00
2018-12-02T18:30:31.227Z,98842.00
2018-12-02T18:33:03.664Z,98839.00
2018-12-02T18:35:57.795Z,98847.00
2018-12-02T18:38:30.053Z,98842.00
2018-12-02T18:41:11.684Z,98844.00
2018-12-02T18:43:41.991Z,98841.00
2018-12-02T18:46:15.153Z,98848.00
2018-12-02T18:48:44.896Z,98850.00
2018-12-02T18:51:16.434Z,98854.00
2018-12-02T18:53:46.284Z,98856.00
2018-12-02T18:56:16.988Z,98863.00
2018-12-02T18:58:47.959Z,98869.00
2018-12-02T19:01:17.694Z,98863.00
2018-12-02T19:03:47.556Z,98863.00
2018-12-02T19:06:18.658Z,98855.00
2018-12-02T19:08:49.059Z,98855.00
2018-12-02T19:11:19.197Z,98851.00
2018-12-02T19:13:59.081Z,98852.00
2018-12-02T19:16:43.174Z,98857.00
2018-12-02T19:19:17.828Z,98852.00
2018-12-02T19:21:50.245Z,98847.00
2018-12-02T19:24:21.132Z,98862.00
2018-12-02T19:26:51.186Z,98858.00
2018-12-02T19:29:22.141Z,98856.00
2018-12-02T19:31:53.238Z,98858.00
2018-12-02T19:34:23.698Z,98852.00
2018-12-02T19:37:05.944Z,98859.00
2018-12-02T19:39:36.835Z,98864.00
2018-12-02T19:42:13.128Z,98866.00
2018-12-02T19:44:45.791Z,98876.00
2018-12-02T19:47:16.700Z,98872.00
2018-12-02T19:49:47.288Z,98865.00
2018-12-02T19:52:22.984Z,98869.00
2018-12-02T19:55:05.786Z,98866.00
2018-12-02T19:57:40.634Z,98859.00
2018-12-02T20:01:29.962Z,98866.00
2018-12-02T20:04:02.146Z,98866.00
2018-12-02T20:06:36.651Z,98868.00
2018-12-02T20:09:13.032Z,98861.00
2018-12-02T20:11:49.306Z,98867.00
2018-12-02T20:14:24.183Z,98882.00
2018-12-02T20:17:06.759Z,98884.00
2018-12-02T20:21:50.360Z,98884.00
2018-12-02T20:24:26.117Z,98886.00
2018-12-02T20:27:05.159Z,98884.00
2018-12-02T20:29:37.889Z,98887.00
2018-12-02T20:32:11.961Z,98887.00
2018-12-02T20:34:43.378Z,98885.00
2018-12-02T20:37:14.753Z,98884.00
2018-12-02T20:39:49.382Z,98887.00
2018-12-02T20:42:33.838Z,98882.00
2018-12-02T20:45:22.055Z,98890.00
2018-12-02T20:47:52.704Z,98891.00
2018-12-02T20:50:44.059Z,98896.00
2018-12-02T20:53:16.196Z,98905.00
2018-12-02T20:55:52.190Z,98903.00
2018-12-02T20:58:27.952Z,98907.00
2018-12-02T21:00:58.548Z,98905.00
2018-12-02T21:03:34.142Z,98905.00
2018-12-02T21:06:16.071Z,98910.00
2018-12-02T21:08:48.384Z,98909.00
2018-12-02T21:14:21.175Z,98914.00
2018-12-02T21:17:07.909Z,98913.00
2018-12-02T21:19:51.249Z,98915.00
2018-12-02T21:22:28.347Z,98909.00
2018-12-02T21:25:00.045Z,98908.00
2018-12-02T21:30:44.833Z,98912.00
2018-12-02T21:33:19.193Z,98908.00
2018-12-02T21:35:52.853Z,98905.00
2018-12-02T21:38:24.644Z,98907.00
2018-12-02T21:40:54.576Z,98903.00
2018-12-02T21:43:28.117Z,98903.00
2018-12-02T21:46:03.510Z,98904.00
2018-12-02T21:48:34.460Z,98897.00
2018-12-02T21:51:10.522Z,98897.00
2018-12-02T21:53:41.781Z,98901.00
2018-12-02T21:56:12.680Z,98900.00
2018-12-02T21:58:43.888Z,98909.00
2018-12-02T22:01:14.521Z,98903.00
2018-12-02T22:03:45.992Z,98908.00
2018-12-02T22:06:24.121Z,98908.00
2018-12-02T22:08:54.387Z,98912.00
2018-12-02T22:11:26.272Z,98905.00
2018-12-02T22:14:04.782Z,98912.00
2018-12-02T22:16:37.179Z,98912.00
2018-12-02T22:19:08.662Z,98910.00
2018-12-02T22:21:38.843Z,98904.00
2018-12-02T22:24:13.086Z,98913.00
2018-12-02T22:26:44.212Z,98911.00
2018-12-02T22:29:15.412Z,98906.00
2018-12-02T22:31:47.739Z,98911.00
2018-12-02T22:34:17.731Z,98913.00
2018-12-02T22:36:48.365Z,98906.00
2018-12-02T22:39:21.695Z,98902.00
2018-12-02T22:41:52.074Z,98903.00
2018-12-02T22:44:22.511Z,98892.00
2018-12-02T22:46:52.425Z,98899.00
2018-12-02T22:49:23.512Z,98891.00
2018-12-02T22:52:00.874Z,98890.00
2018-12-02T22:54:39.379Z,98891.00
2018-12-02T22:57:10.628Z,98881.00
2018-12-02T22:59:43.230Z,98879.00
2018-12-02T23:02:23.143Z,98880.00
2018-12-02T23:05:07.581Z,98883.00
2018-12-02T23:07:40.503Z,98884.00
2018-12-02T23:10:11.935Z,98880.00
2018-12-02T23:12:42.925Z,98883.00
2018-12-02T23:15:15.272Z,98880.00
2018-12-02T23:17:44.884Z,98877.00
2018-12-02T23:20:14.348Z,98869.00
2018-12-02T23:22:43.860Z,98870.00
2018-12-02T23:25:16.005Z,98871.00
2018-12-02T23:27:45.993Z,98869.00
2018-12-02T23:30:27.112Z,98870.00
2018-12-02T23:32:57.548Z,98869.00
2018-12-02T23:35:30.711Z,98872.00
2018-12-02T23:38:02.453Z,98867.00
2018-12-02T23:40:37.176Z,98867.00
2018-12-02T23:43:08.505Z,98867.00
2018-12-02T23:45:39.788Z,98868.00
2018-12-02T23:48:11.095Z,98861.00
2018-12-02T23:50:47.870Z,98855.00
2018-12-02T23:53:29.201Z,98860.00
2018-12-02T23:56:04.527Z,98856.00
2018-12-02T23:58:35.279Z,98861.00
